Time;durP1;ratioP1;P1;durP2;ratioP2;P2;SDS_P1;SDS_P2;PMS_P1;PMS_P2;Temp;Humidity;BMP_temperature;BMP_pressure;BME280_temperature;BME280_humidity;BME280_pressure;Samples;Min_cycle;Max_cycle;Signal;HPM_P1;HPM_P2
2023/08/31 00:00:17;;;;;;;2.80;1.87;;;;;;;;;;4372655;32;66571;-63
2023/08/31 00:03:05;;;;;;;;;;;;;;;;;;4383698;32;67738;-63
2023/08/31 00:05:51;;;;;;;2.33;1.62;;;;;;;;;;4384726;32;59174;-63
2023/08/31 00:08:37;;;;;;;2.60;1.60;;;;;;;;;;4382962;32;69458;-62
2023/08/31 00:11:25;;;;;;;3.17;2.20;;;;;;;;;;4384413;32;69540;-64
2023/08/31 00:14:12;;;;;;;3.45;1.92;;;;;;;;;;4371677;32;68805;-63
2023/08/31 00:16:59;;;;;;;2.62;1.95;;;;;;;;;;4383024;32;71366;-63
2023/08/31 00:19:45;;;;;;;2.80;1.98;;;;;;;;;;4382957;32;65948;-63
2023/08/31 00:22:32;;;;;;;3.67;1.85;;;;;;;;;;4385745;32;67648;-63
2023/08/31 00:25:21;;;;;;;3.17;2.20;;;;;;;;;;4372060;32;68367;-64
2023/08/31 00:28:09;;;;;;;3.22;1.92;;;;;;;;;;4384120;32;71829;-63
2023/08/31 00:30:57;;;;;;;2.80;1.70;;;;;;;;;;4371768;32;66875;-63
2023/08/31 00:33:43;;;;;;;8.25;2.40;;;;;;;;;;4382819;32;66646;-64
2023/08/31 00:36:33;;;;;;;2.25;1.58;;;;;;;;;;4384199;32;60099;-63
2023/08/31 00:39:20;;;;;;;3.75;2.00;;;;;;;;;;4371973;32;70047;-63
2023/08/31 00:42:07;;;;;;;3.17;2.00;;;;;;;;;;4383650;32;68949;-63
2023/08/31 00:44:54;;;;;;;2.72;1.77;;;;;;;;;;4383980;32;66786;-63
2023/08/31 00:47:44;;;;;;;3.87;2.20;;;;;;;;;;4382266;32;60933;-63
2023/08/31 00:50:30;;;;;;;4.05;2.05;;;;;;;;;;4371217;32;70353;-63
2023/08/31 00:53:17;;;;;;;5.03;2.10;;;;;;;;;;4382573;32;68269;-63
2023/08/31 00:56:04;;;;;;;3.53;2.28;;;;;;;;;;4371886;32;67713;-63
2023/08/31 00:58:52;;;;;;;5.07;2.00;;;;;;;;;;4382406;32;71532;-62
2023/08/31 01:01:52;;;;;;;3.60;2.10;;;;;;;;;;4382621;32;65668;-63
2023/08/31 01:04:51;;;;;;;4.18;2.45;;;;;;;;;;4383968;32;67514;-64
2023/08/31 01:08:03;;;;;;;3.37;2.05;;;;;;;;;;4388487;32;59208;-63
2023/08/31 01:11:17;;;;;;;3.47;2.08;;;;;;;;;;4376121;32;70843;-63
2023/08/31 01:14:11;;;;;;;3.80;2.25;;;;;;;;;;4388814;32;66506;-64
2023/08/31 01:16:59;;;;;;;3.33;2.17;;;;;;;;;;4389219;32;68030;-67
2023/08/31 01:22:47;;;;;;;4.28;2.25;;;;;;;;;;3854605;37;43032;-63
2023/08/31 01:25:35;;;;;;;4.25;2.08;;;;;;;;;;4381237;32;60437;-65
2023/08/31 01:28:21;;;;;;;;;;;;;;;;;;4419928;32;70586;-63
2023/08/31 01:31:07;;;;;;;5.18;2.28;;;;;;;;;;4406913;32;69388;-63
2023/08/31 01:33:54;;;;;;;3.58;2.05;;;;;;;;;;4417174;32;65329;-63
2023/08/31 01:36:47;;;;;;;3.60;1.92;;;;;;;;;;4407303;32;72721;-63
2023/08/31 01:39:47;;;;;;;4.12;2.12;;;;;;;;;;4398101;32;66128;-63
2023/08/31 01:42:34;;;;;;;4.12;2.20;;;;;;;;;;4418498;32;67231;-63
2023/08/31 01:45:23;;;;;;;3.40;2.05;;;;;;;;;;4406718;32;60318;-63
2023/08/31 01:48:11;;;;;;;4.03;2.10;;;;;;;;;;4401933;32;71330;-63
2023/08/31 01:50:57;;;;;;;3.92;1.80;;;;;;;;;;4411277;32;66433;-62
2023/08/31 01:53:44;;;;;;;3.60;2.30;;;;;;;;;;4409574;32;67185;-63
2023/08/31 01:56:33;;;;;;;3.20;1.85;;;;;;;;;;4399165;32;59221;-63
2023/08/31 01:59:22;;;;;;;3.97;2.05;;;;;;;;;;4398876;32;70327;-63
2023/08/31 02:02:09;;;;;;;2.85;2.05;;;;;;;;;;4409321;32;68446;-63
2023/08/31 02:04:58;;;;;;;3.87;2.20;;;;;;;;;;4409237;32;67734;-63
2023/08/31 02:07:45;;;;;;;4.72;2.55;;;;;;;;;;4409253;32;71610;-63
2023/08/31 02:10:31;;;;;;;3.37;2.17;;;;;;;;;;4409653;32;65431;-63
2023/08/31 02:13:17;;;;;;;3.95;2.20;;;;;;;;;;4411419;32;69550;-63
2023/08/31 02:16:04;;;;;;;4.10;2.20;;;;;;;;;;4409231;32;66635;-63
2023/08/31 02:18:51;;;;;;;3.55;2.40;;;;;;;;;;4410306;32;71905;-63
2023/08/31 02:21:38;;;;;;;;;;;;;;;;;;4408614;32;67295;-63
2023/08/31 02:24:24;;;;;;;4.30;2.67;;;;;;;;;;4408743;32;68294;-63
2023/08/31 02:27:11;;;;;;;4.15;2.35;;;;;;;;;;4398616;32;60168;-63
2023/08/31 02:30:02;;;;;;;5.68;2.50;;;;;;;;;;4410145;32;70271;-63
2023/08/31 02:32:49;;;;;;;5.95;2.92;;;;;;;;;;4405726;32;68394;-63
2023/08/31 02:35:35;;;;;;;;;;;;;;;;;;4400380;32;67992;-63
2023/08/31 02:38:23;;;;;;;4.75;2.70;;;;;;;;;;4387878;32;59409;-63
2023/08/31 02:41:10;;;;;;;4.87;2.80;;;;;;;;;;4387301;32;71291;-63
2023/08/31 02:43:56;;;;;;;6.53;3.45;;;;;;;;;;4398579;32;68399;-63
2023/08/31 02:46:43;;;;;;;8.13;3.80;;;;;;;;;;4387906;32;66629;-64
2023/08/31 02:49:29;;;;;;;6.90;3.90;;;;;;;;;;4399844;32;70914;-63
2023/08/31 02:52:16;;;;;;;10.23;4.87;;;;;;;;;;4398560;32;66202;-63
2023/08/31 02:55:02;;;;;;;13.75;6.12;;;;;;;;;;4401450;32;67864;-63
2023/08/31 02:57:49;;;;;;;;;;;;;;;;;;4399067;32;59924;-63
2023/08/31 03:00:39;;;;;;;9.25;4.80;;;;;;;;;;4397933;32;70399;-63
2023/08/31 03:03:26;;;;;;;8.48;4.60;;;;;;;;;;4403229;32;65718;-63
2023/08/31 03:06:12;;;;;;;7.15;3.83;;;;;;;;;;4388022;32;67593;-63
2023/08/31 03:08:59;;;;;;;5.20;3.12;;;;;;;;;;4399931;32;60020;-63
2023/08/31 03:11:45;;;;;;;6.65;3.45;;;;;;;;;;4399870;32;70593;-64
2023/08/31 03:14:32;;;;;;;;;;;;;;;;;;4407951;32;68957;-62
2023/08/31 03:17:19;;;;;;;6.70;3.22;;;;;;;;;;4398621;32;66828;-64
2023/08/31 03:20:06;;;;;;;;;;;;;;;;;;4377010;32;71943;-62
2023/08/31 03:22:52;;;;;;;6.23;3.50;;;;;;;;;;4398266;32;64990;-63
2023/08/31 03:25:43;;;;;;;6.50;3.47;;;;;;;;;;4399666;32;67147;-63
2023/08/31 03:28:30;;;;;;;7.32;3.62;;;;;;;;;;4399384;32;66851;-63
2023/08/31 03:31:19;;;;;;;5.55;3.05;;;;;;;;;;4386491;32;72341;-62
2023/08/31 03:34:05;;;;;;;5.00;2.53;;;;;;;;;;4398147;32;65775;-62
2023/08/31 03:36:52;;;;;;;4.00;2.50;;;;;;;;;;4398127;32;67747;-63
2023/08/31 03:39:40;;;;;;;4.00;2.40;;;;;;;;;;4401503;32;60133;-63
2023/08/31 03:42:27;;;;;;;5.00;2.25;;;;;;;;;;4397819;32;70460;-63
2023/08/31 03:45:13;;;;;;;3.85;2.10;;;;;;;;;;4397012;32;69119;-63
2023/08/31 03:48:02;;;;;;;2.97;2.00;;;;;;;;;;4399257;32;67562;-63
2023/08/31 03:51:07;;;;;;;3.17;1.80;;;;;;;;;;3847436;37;44024;-62
2023/08/31 03:53:56;;;;;;;3.47;2.08;;;;;;;;;;4399564;32;58947;-63
2023/08/31 03:56:43;;;;;;;4.30;1.98;;;;;;;;;;4410988;32;69478;-63
2023/08/31 03:59:32;;;;;;;3.67;2.08;;;;;;;;;;4399772;32;69416;-63
2023/08/31 04:02:23;;;;;;;3.17;2.05;;;;;;;;;;4411560;32;67208;-63
2023/08/31 04:05:10;;;;;;;4.62;2.03;;;;;;;;;;4399131;32;71946;-62
2023/08/31 04:07:58;;;;;;;3.60;2.12;;;;;;;;;;4409610;32;64712;-63
2023/08/31 04:10:45;;;;;;;3.17;1.70;;;;;;;;;;4409595;32;67131;-63
2023/08/31 04:13:31;;;;;;;3.28;2.25;;;;;;;;;;4398564;32;60095;-63
2023/08/31 04:16:18;;;;;;;4.97;1.80;;;;;;;;;;4399140;32;70928;-63
2023/08/31 04:19:04;;;;;;;2.35;1.73;;;;;;;;;;4410768;32;65584;-63
2023/08/31 04:21:51;;;;;;;;;;;;;;;;;;4388483;32;67588;-64
2023/08/31 04:24:37;;;;;;;3.70;2.25;;;;;;;;;;4411154;32;59426;-62
2023/08/31 04:27:24;;;;;;;;;;;;;;;;;;4410887;32;70336;-62
2023/08/31 04:30:11;;;;;;;4.32;2.10;;;;;;;;;;4410644;32;68959;-63
2023/08/31 04:32:58;;;;;;;3.10;1.92;;;;;;;;;;4409325;32;66661;-63
2023/08/31 04:35:44;;;;;;;3.73;2.20;;;;;;;;;;4410491;32;71477;-63
2023/08/31 04:38:31;;;;;;;;;;;;;;;;;;4409928;32;65963;-63
2023/08/31 04:41:17;;;;;;;2.60;2.15;;;;;;;;;;4410753;32;69753;-64
2023/08/31 04:44:04;;;;;;;;;;;;;;;;;;4409639;32;67607;-63
2023/08/31 04:46:51;;;;;;;2.20;1.62;;;;;;;;;;4387053;32;72312;-63
2023/08/31 04:49:40;;;;;;;3.42;2.17;;;;;;;;;;4408686;32;66240;-64
2023/08/31 04:52:26;;;;;;;1.87;1.58;;;;;;;;;;4410494;32;67633;-62
2023/08/31 04:55:14;;;;;;;4.05;2.03;;;;;;;;;;4408889;32;58084;-63
2023/08/31 04:58:00;;;;;;;2.53;1.83;;;;;;;;;;4409131;32;70464;-63
2023/08/31 05:00:54;;;;;;;3.70;2.28;;;;;;;;;;4394668;32;69858;-63
2023/08/31 05:03:41;;;;;;;3.55;2.20;;;;;;;;;;4387955;32;67749;-63
2023/08/31 05:06:27;;;;;;;1.50;1.12;;;;;;;;;;4400631;32;59240;-63
2023/08/31 05:09:14;;;;;;;5.95;2.45;;;;;;;;;;4398966;32;69497;-64
2023/08/31 05:12:02;;;;;;;4.45;2.67;;;;;;;;;;4398594;32;68253;-64
2023/08/31 05:14:48;;;;;;;2.67;1.85;;;;;;;;;;4388029;32;66696;-63
2023/08/31 05:17:35;;;;;;;4.75;2.30;;;;;;;;;;4399715;32;72024;-64
2023/08/31 05:20:23;;;;;;;2.70;1.58;;;;;;;;;;4398540;32;64931;-64
2023/08/31 05:23:10;;;;;;;2.60;1.77;;;;;;;;;;4399836;32;67525;-63
2023/08/31 05:25:56;;;;;;;2.30;1.25;;;;;;;;;;4398816;32;59983;-63
2023/08/31 05:28:43;;;;;;;3.35;2.22;;;;;;;;;;4387760;32;69497;-63
2023/08/31 05:31:30;;;;;;;;;;;;;;;;;;4400341;32;65809;-63
2023/08/31 05:34:25;;;;;;;4.60;2.33;;;;;;;;;;4398635;32;67539;-62
2023/08/31 05:37:11;;;;;;;2.53;1.73;;;;;;;;;;4398606;32;60118;-64
2023/08/31 05:39:58;;;;;;;2.80;1.80;;;;;;;;;;4399631;32;69706;-64
2023/08/31 05:42:45;;;;;;;2.08;1.02;;;;;;;;;;4401359;32;69392;-63
2023/08/31 05:45:32;;;;;;;;;;;;;;;;;;4399515;32;67569;-63
2023/08/31 05:48:18;;;;;;;3.40;2.23;;;;;;;;;;4398595;32;70933;-63
2023/08/31 05:51:05;;;;;;;;;;;;;;;;;;4384408;32;68919;-62
2023/08/31 05:53:51;;;;;;;2.15;1.20;;;;;;;;;;4384624;32;67068;-63
2023/08/31 05:56:39;;;;;;;;;;;;;;;;;;4372855;32;67498;-63
2023/08/31 05:59:25;;;;;;;2.78;2.17;;;;;;;;;;4372209;32;72670;-63
2023/08/31 06:02:14;;;;;;;2.65;1.95;;;;;;;;;;4372530;32;64967;-62
2023/08/31 06:05:01;;;;;;;2.20;1.37;;;;;;;;;;4382553;32;68278;-63
2023/08/31 06:07:49;;;;;;;3.30;2.15;;;;;;;;;;4384205;32;59279;-63
2023/08/31 06:10:36;;;;;;;3.40;1.98;;;;;;;;;;4371622;32;71217;-64
2023/08/31 06:13:23;;;;;;;3.28;2.37;;;;;;;;;;4381816;32;69267;-63
2023/08/31 06:16:09;;;;;;;6.28;2.60;;;;;;;;;;4384848;32;67957;-63
2023/08/31 06:18:56;;;;;;;3.78;2.10;;;;;;;;;;4384006;32;60399;-63
2023/08/31 06:21:42;;;;;;;;;;;;;;;;;;4382849;32;70513;-62
2023/08/31 06:24:29;;;;;;;4.05;2.45;;;;;;;;;;4371713;32;69433;-63
2023/08/31 06:27:17;;;;;;;;;;;;;;;;;;4384109;32;67588;-63
2023/08/31 06:30:04;;;;;;;2.55;1.83;;;;;;;;;;4382403;32;71803;-63
2023/08/31 06:32:51;;;;;;;3.42;2.00;;;;;;;;;;4383670;32;64971;-63
2023/08/31 06:35:37;;;;;;;1.87;1.52;;;;;;;;;;4382181;32;68051;-62
2023/08/31 06:38:24;;;;;;;3.92;2.50;;;;;;;;;;4371820;32;59843;-62
2023/08/31 06:41:10;;;;;;;3.28;1.60;;;;;;;;;;4360916;32;69529;-63
2023/08/31 06:43:56;;;;;;;;;;;;;;;;;;4383785;32;64894;-63
2023/08/31 06:46:42;;;;;;;2.78;1.67;;;;;;;;;;4383781;32;67645;-63
2023/08/31 06:49:32;;;;;;;2.90;1.77;;;;;;;;;;4386772;32;60876;-63
2023/08/31 06:52:19;;;;;;;3.15;1.95;;;;;;;;;;4397044;32;70601;-63
2023/08/31 06:55:06;;;;;;;5.18;2.10;;;;;;;;;;4398426;32;69116;-63
2023/08/31 06:57:52;;;;;;;4.50;2.67;;;;;;;;;;4396859;32;68550;-64
2023/08/31 07:00:39;;;;;;;3.70;2.28;;;;;;;;;;4397001;32;71820;-63
2023/08/31 07:03:25;;;;;;;5.10;2.87;;;;;;;;;;4397396;32;66050;-62
2023/08/31 07:06:12;;;;;;;2.35;1.60;;;;;;;;;;4397434;32;67731;-63
2023/08/31 07:08:58;;;;;;;4.20;1.70;;;;;;;;;;4398217;32;67901;-63
2023/08/31 07:11:45;;;;;;;4.70;1.98;;;;;;;;;;4398270;32;70707;-63
2023/08/31 07:14:31;;;;;;;2.50;1.95;;;;;;;;;;4398557;32;65778;-62
2023/08/31 07:17:19;;;;;;;;;;;;;;;;;;4397561;32;68020;-63
2023/08/31 07:20:06;;;;;;;3.33;1.80;;;;;;;;;;4398930;32;59116;-62
2023/08/31 07:22:52;;;;;;;1.87;1.55;;;;;;;;;;4386443;32;70263;-63
2023/08/31 07:25:39;;;;;;;2.95;2.10;;;;;;;;;;4397781;32;69391;-64
2023/08/31 07:28:26;;;;;;;3.83;2.50;;;;;;;;;;4398185;32;67336;-63
2023/08/31 07:31:13;;;;;;;4.87;2.50;;;;;;;;;;4398308;32;70546;-63
2023/08/31 07:34:00;;;;;;;3.40;2.40;;;;;;;;;;4396697;32;70479;-63
2023/08/31 07:36:46;;;;;;;4.05;2.10;;;;;;;;;;4397006;32;69498;-63
2023/08/31 07:39:33;;;;;;;2.67;2.17;;;;;;;;;;4398194;32;67410;-63
2023/08/31 07:42:20;;;;;;;2.60;2.00;;;;;;;;;;4396666;32;71706;-63
2023/08/31 07:45:06;;;;;;;;;;;;;;;;;;4396794;32;66739;-62
2023/08/31 07:47:53;;;;;;;3.15;2.35;;;;;;;;;;4398104;32;67879;-62
2023/08/31 07:50:43;;;;;;;3.37;2.10;;;;;;;;;;4397624;32;59271;-63
2023/08/31 07:53:29;;;;;;;2.65;1.87;;;;;;;;;;4396663;32;70546;-63
2023/08/31 07:56:16;;;;;;;4.22;2.10;;;;;;;;;;4397242;32;68477;-63
2023/08/31 07:59:03;;;;;;;6.62;2.58;;;;;;;;;;4397026;32;68243;-63
2023/08/31 08:01:49;;;;;;;1.95;1.58;;;;;;;;;;4386561;32;60163;-63
2023/08/31 08:04:35;;;;;;;;;;;;;;;;;;4398126;32;69432;-64
2023/08/31 08:07:21;;;;;;;4.72;2.50;;;;;;;;;;4396527;32;68703;-64
2023/08/31 08:10:08;;;;;;;;;;;;;;;;;;4396617;32;66896;-63
2023/08/31 08:12:56;;;;;;;3.58;2.28;;;;;;;;;;4396104;32;71548;-62
2023/08/31 08:15:42;;;;;;;3.15;2.17;;;;;;;;;;4385027;32;66687;-63
2023/08/31 08:18:30;;;;;;;1.98;1.83;;;;;;;;;;4397650;32;66675;-63
2023/08/31 08:21:16;;;;;;;3.37;1.85;;;;;;;;;;4398077;32;59189;-63
2023/08/31 08:24:03;;;;;;;2.17;1.70;;;;;;;;;;4385082;32;71464;-63
2023/08/31 08:26:49;;;;;;;1.80;1.37;;;;;;;;;;4385773;32;65832;-62
2023/08/31 08:29:36;;;;;;;3.83;1.92;;;;;;;;;;4397847;32;67915;-64
2023/08/31 08:32:25;;;;;;;3.22;2.20;;;;;;;;;;4398062;32;60063;-62
2023/08/31 08:35:15;;;;;;;1.98;1.60;;;;;;;;;;4385338;32;71367;-63
2023/08/31 08:38:01;;;;;;;3.45;1.80;;;;;;;;;;4398988;32;68223;-63
2023/08/31 08:40:48;;;;;;;3.12;2.10;;;;;;;;;;4399984;32;68083;-63
2023/08/31 08:43:35;;;;;;;;;;;;;;;;;;4400610;32;70882;-62
2023/08/31 08:46:22;;;;;;;4.12;2.22;;;;;;;;;;4399178;32;70165;-62
2023/08/31 08:49:10;;;;;;;3.40;1.95;;;;;;;;;;4398607;32;69657;-63
2023/08/31 08:51:56;;;;;;;3.75;2.50;;;;;;;;;;4399698;32;67918;-63
2023/08/31 08:54:45;;;;;;;2.08;1.70;;;;;;;;;;4387882;32;71874;-63
2023/08/31 08:57:32;;;;;;;4.95;2.10;;;;;;;;;;4398721;32;65979;-62
2023/08/31 09:00:18;;;;;;;2.50;1.80;;;;;;;;;;4398936;32;67957;-62
2023/08/31 09:03:05;;;;;;;;;;;;;;;;;;4399771;32;59794;-63
2023/08/31 09:05:52;;;;;;;3.03;2.05;;;;;;;;;;4388885;32;70032;-63
2023/08/31 09:08:38;;;;;;;3.83;2.25;;;;;;;;;;4402733;32;69453;-63
2023/08/31 09:11:26;;;;;;;2.65;1.98;;;;;;;;;;4404428;32;67875;-63
2023/08/31 09:14:19;;;;;;;4.60;1.87;;;;;;;;;;4403236;32;60327;-67
2023/08/31 09:17:07;;;;;;;4.12;2.15;;;;;;;;;;4390957;32;69721;-63
2023/08/31 09:20:00;;;;;;;;;;;;;;;;;;4376979;32;68979;-63
2023/08/31 09:22:50;;;;;;;2.83;1.80;;;;;;;;;;4399198;32;68066;-63
2023/08/31 09:25:43;;;;;;;2.50;1.85;;;;;;;;;;4398749;32;71908;-63
2023/08/31 09:28:30;;;;;;;2.55;1.92;;;;;;;;;;4400019;32;66238;-63
2023/08/31 09:31:16;;;;;;;3.28;2.50;;;;;;;;;;4398438;32;67936;-63
2023/08/31 09:34:06;;;;;;;2.95;2.25;;;;;;;;;;4398550;32;59149;-63
2023/08/31 09:36:53;;;;;;;2.67;2.20;;;;;;;;;;4398020;32;71165;-62
2023/08/31 09:39:39;;;;;;;;;;;;;;;;;;4399850;32;66338;-63
2023/08/31 09:42:40;;;;;;;3.53;2.10;;;;;;;;;;4377060;32;67098;-63
2023/08/31 09:45:34;;;;;;;4.10;2.33;;;;;;;;;;4398382;32;60551;-63
2023/08/31 09:48:20;;;;;;;3.20;2.10;;;;;;;;;;4387299;32;69631;-64
2023/08/31 09:51:09;;;;;;;3.12;2.17;;;;;;;;;;4399289;32;69484;-63
2023/08/31 09:53:57;;;;;;;2.35;1.70;;;;;;;;;;4387713;32;66615;-63
2023/08/31 09:56:45;;;;;;;3.35;2.17;;;;;;;;;;4376500;32;71879;-64
2023/08/31 09:59:33;;;;;;;2.70;1.90;;;;;;;;;;4387377;32;66368;-64
2023/08/31 10:02:23;;;;;;;2.60;1.80;;;;;;;;;;4397738;32;69595;-62
2023/08/31 10:05:09;;;;;;;2.65;2.10;;;;;;;;;;4377082;32;66706;-63
2023/08/31 10:07:56;;;;;;;3.12;2.10;;;;;;;;;;4386814;32;69980;-64
2023/08/31 10:10:42;;;;;;;;;;;;;;;;;;4387655;32;66275;-63
2023/08/31 10:13:31;;;;;;;2.00;1.80;;;;;;;;;;4399320;32;67744;-64
2023/08/31 10:16:19;;;;;;;4.15;2.08;;;;;;;;;;4397616;32;59096;-64
2023/08/31 10:19:05;;;;;;;3.45;2.37;;;;;;;;;;4397417;32;69953;-63
2023/08/31 10:21:52;;;;;;;2.60;1.90;;;;;;;;;;4398764;32;69601;-63
2023/08/31 10:25:03;;;;;;;2.22;1.55;;;;;;;;;;4397548;32;67686;-63
2023/08/31 10:27:51;;;;;;;5.68;1.92;;;;;;;;;;4386741;32;61124;-62
2023/08/31 10:30:37;;;;;;;3.95;1.83;;;;;;;;;;4400731;32;70407;-62
2023/08/31 10:33:24;;;;;;;3.47;1.98;;;;;;;;;;4397599;32;69628;-63
2023/08/31 10:36:16;;;;;;;3.40;2.03;;;;;;;;;;4397491;32;66903;-63
2023/08/31 10:39:12;;;;;;;2.53;1.70;;;;;;;;;;4386714;32;71711;-63
2023/08/31 10:42:02;;;;;;;1.95;1.50;;;;;;;;;;4386859;32;65655;-63
2023/08/31 10:44:50;;;;;;;3.50;2.35;;;;;;;;;;4376361;32;67871;-64
2023/08/31 10:47:41;;;;;;;3.37;2.20;;;;;;;;;;4398838;32;60255;-65
2023/08/31 10:50:28;;;;;;;2.40;1.70;;;;;;;;;;4375138;32;71622;-65
2023/08/31 10:53:14;;;;;;;3.17;2.35;;;;;;;;;;4386634;32;65016;-63
2023/08/31 10:56:02;;;;;;;3.40;2.10;;;;;;;;;;4397262;32;67860;-63
2023/08/31 10:59:02;;;;;;;4.18;2.20;;;;;;;;;;4398377;32;60112;-66
2023/08/31 11:02:04;;;;;;;3.35;2.50;;;;;;;;;;4375068;32;71654;-64
2023/08/31 11:05:09;;;;;;;2.40;1.90;;;;;;;;;;4397127;32;69357;-64
2023/08/31 11:07:57;;;;;;;4.53;2.30;;;;;;;;;;4398275;32;67432;-64
2023/08/31 11:10:46;;;;;;;4.85;2.40;;;;;;;;;;4386285;32;71008;-64
2023/08/31 11:13:33;;;;;;;3.17;2.08;;;;;;;;;;4397460;32;65432;-63
2023/08/31 11:16:19;;;;;;;3.70;2.10;;;;;;;;;;4398619;32;69400;-65
2023/08/31 11:19:06;;;;;;;2.60;2.08;;;;;;;;;;4398258;32;67535;-64
2023/08/31 11:21:53;;;;;;;2.65;1.80;;;;;;;;;;4375351;32;72394;-64
2023/08/31 11:24:40;;;;;;;1.95;1.25;;;;;;;;;;4397175;32;65849;-64
2023/08/31 11:27:26;;;;;;;3.97;2.10;;;;;;;;;;4398357;32;68093;-63
2023/08/31 11:30:16;;;;;;;1.80;1.10;;;;;;;;;;4399043;32;59888;-64
2023/08/31 11:33:11;;;;;;;2.80;1.90;;;;;;;;;;4399798;32;70532;-64
2023/08/31 11:35:58;;;;;;;3.78;2.50;;;;;;;;;;4396991;32;69349;-65
2023/08/31 11:38:48;;;;;;;3.92;2.00;;;;;;;;;;4398159;32;66623;-64
2023/08/31 11:41:37;;;;;;;4.00;2.30;;;;;;;;;;4397081;32;60113;-65
2023/08/31 11:44:26;;;;;;;2.20;1.48;;;;;;;;;;4398026;32;70563;-65
2023/08/31 11:47:13;;;;;;;3.37;2.17;;;;;;;;;;4396863;32;69440;-64
2023/08/31 11:50:01;;;;;;;3.62;2.10;;;;;;;;;;4396399;32;66787;-64
2023/08/31 11:52:50;;;;;;;4.43;2.33;;;;;;;;;;4397965;32;71281;-64
2023/08/31 11:55:37;;;;;;;3.67;1.98;;;;;;;;;;4386304;32;65960;-65
2023/08/31 11:58:24;;;;;;;;;;;;;;;;;;4385742;32;67679;-63
2023/08/31 12:01:10;;;;;;;3.35;1.95;;;;;;;;;;4386428;32;60825;-64
2023/08/31 12:03:57;;;;;;;4.30;2.00;;;;;;;;;;4396659;32;70467;-63
2023/08/31 12:06:48;;;;;;;;;;;;;;;;;;4396985;32;66264;-64
2023/08/31 12:09:37;;;;;;;4.18;2.60;;;;;;;;;;4398466;32;67800;-64
2023/08/31 12:12:24;;;;;;;3.03;1.52;;;;;;;;;;4398873;32;61229;-63
2023/08/31 12:15:11;;;;;;;3.83;2.05;;;;;;;;;;4400699;32;70569;-64
2023/08/31 12:17:57;;;;;;;3.30;1.92;;;;;;;;;;4388561;32;69347;-64
2023/08/31 12:20:53;;;;;;;5.57;2.50;;;;;;;;;;4400579;32;67647;-64
2023/08/31 12:23:40;;;;;;;3.42;1.98;;;;;;;;;;4400286;32;72163;-63
2023/08/31 12:26:27;;;;;;;3.92;2.30;;;;;;;;;;4400668;32;66152;-64
2023/08/31 12:29:14;;;;;;;6.43;2.33;;;;;;;;;;4400703;32;67744;-64
2023/08/31 12:32:00;;;;;;;2.70;1.95;;;;;;;;;;4387747;32;68558;-64
2023/08/31 12:34:47;;;;;;;4.65;2.35;;;;;;;;;;4398976;32;71724;-64
2023/08/31 12:37:34;;;;;;;5.50;2.05;;;;;;;;;;4388317;32;65036;-63
2023/08/31 12:40:20;;;;;;;3.05;2.20;;;;;;;;;;4400301;32;67672;-64
2023/08/31 12:43:07;;;;;;;3.30;2.20;;;;;;;;;;4399253;32;59203;-63
2023/08/31 12:45:53;;;;;;;3.05;2.37;;;;;;;;;;4400556;32;69532;-64
2023/08/31 12:48:40;;;;;;;4.85;2.12;;;;;;;;;;4387277;32;70057;-64
2023/08/31 12:51:27;;;;;;;3.90;2.10;;;;;;;;;;4400277;32;66823;-64
2023/08/31 12:54:14;;;;;;;4.20;2.35;;;;;;;;;;4399045;32;71617;-64
2023/08/31 12:57:01;;;;;;;;;;;;;;;;;;4400315;32;69456;-63
2023/08/31 12:59:47;;;;;;;3.80;1.90;;;;;;;;;;4400138;32;68518;-64
2023/08/31 13:02:33;;;;;;;3.87;2.15;;;;;;;;;;4388077;32;67701;-65
2023/08/31 13:05:20;;;;;;;5.22;2.30;;;;;;;;;;4387877;32;71905;-65
2023/08/31 13:08:07;;;;;;;4.53;2.20;;;;;;;;;;4398698;32;66221;-65
2023/08/31 13:10:55;;;;;;;3.40;2.25;;;;;;;;;;4398545;32;66854;-64
2023/08/31 13:13:41;;;;;;;3.90;2.60;;;;;;;;;;4398917;32;60243;-64
2023/08/31 13:16:28;;;;;;;5.87;2.40;;;;;;;;;;4398620;32;70481;-64
2023/08/31 13:19:14;;;;;;;;;;;;;;;;;;4400165;32;69485;-63
2023/08/31 13:22:01;;;;;;;5.75;2.83;;;;;;;;;;4400165;32;68426;-63
2023/08/31 13:24:47;;;;;;;6.47;2.80;;;;;;;;;;4402131;32;59480;-65
2023/08/31 13:27:34;;;;;;;4.97;3.00;;;;;;;;;;4398176;32;70551;-64
2023/08/31 13:30:20;;;;;;;5.00;3.22;;;;;;;;;;4399507;32;69325;-64
2023/08/31 13:33:08;;;;;;;4.68;2.60;;;;;;;;;;4398203;32;67507;-64
2023/08/31 13:35:57;;;;;;;3.67;2.42;;;;;;;;;;4387024;32;72798;-64
2023/08/31 13:38:44;;;;;;;3.78;2.40;;;;;;;;;;4398208;32;65052;-63
2023/08/31 13:41:30;;;;;;;5.70;2.30;;;;;;;;;;4386997;32;68032;-62
2023/08/31 13:44:17;;;;;;;4.28;2.60;;;;;;;;;;4386996;32;67861;-63
2023/08/31 13:47:05;;;;;;;4.55;2.53;;;;;;;;;;4398103;32;71889;-62
2023/08/31 13:49:52;;;;;;;4.37;2.80;;;;;;;;;;4399191;32;65843;-64
2023/08/31 13:52:39;;;;;;;3.60;2.42;;;;;;;;;;4399205;32;67996;-63
2023/08/31 13:55:26;;;;;;;4.30;2.25;;;;;;;;;;4387840;32;60281;-63
2023/08/31 13:58:14;;;;;;;3.40;1.98;;;;;;;;;;4399454;32;70772;-63
2023/08/31 14:01:03;;;;;;;4.40;2.17;;;;;;;;;;4386450;32;69973;-63
2023/08/31 14:03:50;;;;;;;2.80;2.10;;;;;;;;;;4397943;32;67853;-63
2023/08/31 14:06:36;;;;;;;3.62;2.40;;;;;;;;;;4400824;32;71244;-63
2023/08/31 14:09:23;;;;;;;3.70;2.40;;;;;;;;;;4398832;32;70469;-64
2023/08/31 14:12:09;;;;;;;3.80;2.58;;;;;;;;;;4398039;32;69325;-66
2023/08/31 14:14:57;;;;;;;4.12;2.47;;;;;;;;;;4399371;32;66654;-64
2023/08/31 14:17:43;;;;;;;5.60;2.80;;;;;;;;;;4399682;32;70722;-64
2023/08/31 14:20:32;;;;;;;2.90;2.08;;;;;;;;;;4399471;32;66315;-63
2023/08/31 14:23:19;;;;;;;3.17;1.92;;;;;;;;;;4387056;32;66934;-63
2023/08/31 14:26:06;;;;;;;4.85;2.50;;;;;;;;;;4386486;32;59811;-63
2023/08/31 14:28:54;;;;;;;3.75;2.35;;;;;;;;;;4397676;32;70494;-63
2023/08/31 14:31:41;;;;;;;3.28;2.30;;;;;;;;;;4396982;32;70166;-63
2023/08/31 14:34:32;;;;;;;4.25;2.70;;;;;;;;;;4398112;32;67271;-63
2023/08/31 14:37:18;;;;;;;4.45;2.60;;;;;;;;;;4400928;32;60376;-63
2023/08/31 14:40:08;;;;;;;4.65;2.47;;;;;;;;;;4387951;32;70820;-63
2023/08/31 14:42:55;;;;;;;5.03;2.75;;;;;;;;;;4398625;32;69420;-63
2023/08/31 14:45:45;;;;;;;5.22;2.65;;;;;;;;;;4397391;32;67142;-63
2023/08/31 14:48:32;;;;;;;4.10;2.22;;;;;;;;;;4398633;32;71802;-64
2023/08/31 14:51:18;;;;;;;4.37;2.62;;;;;;;;;;4397706;32;64862;-63
2023/08/31 14:54:05;;;;;;;5.22;2.55;;;;;;;;;;4397080;32;68821;-64
2023/08/31 14:56:52;;;;;;;4.00;2.33;;;;;;;;;;4397717;32;59268;-63
2023/08/31 14:59:38;;;;;;;;;;;;;;;;;;4399019;32;71657;-63
2023/08/31 15:02:25;;;;;;;4.57;2.40;;;;;;;;;;4377493;32;65089;-63
2023/08/31 15:05:12;;;;;;;3.58;2.35;;;;;;;;;;4399136;32;67859;-65
2023/08/31 15:07:58;;;;;;;4.15;2.67;;;;;;;;;;4397727;32;60272;-62
2023/08/31 15:10:45;;;;;;;3.45;2.45;;;;;;;;;;4399114;32;70636;-64
2023/08/31 15:13:32;;;;;;;3.20;2.00;;;;;;;;;;4401635;32;69663;-63
2023/08/31 15:16:19;;;;;;;5.55;2.25;;;;;;;;;;4398301;32;66809;-64
2023/08/31 15:19:07;;;;;;;5.15;2.78;;;;;;;;;;4398062;32;70763;-63
2023/08/31 15:21:53;;;;;;;6.00;3.05;;;;;;;;;;4386743;32;64986;-64
2023/08/31 15:24:42;;;;;;;3.67;2.60;;;;;;;;;;4398001;32;69323;-63
2023/08/31 15:27:29;;;;;;;8.18;3.42;;;;;;;;;;4386239;32;67963;-64
2023/08/31 15:30:16;;;;;;;5.15;2.97;;;;;;;;;;4375344;32;71876;-64
2023/08/31 15:33:03;;;;;;;;;;;;;;;;;;4398318;32;64961;-64
2023/08/31 15:35:49;;;;;;;10.32;3.60;;;;;;;;;;4385780;32;69076;-63
2023/08/31 15:38:36;;;;;;;;;;;;;;;;;;4396893;32;61179;-64
2023/08/31 15:41:22;;;;;;;8.07;3.60;;;;;;;;;;4398108;32;69745;-64
2023/08/31 15:44:09;;;;;;;5.40;3.03;;;;;;;;;;4398043;32;68441;-63
2023/08/31 15:46:55;;;;;;;6.97;3.25;;;;;;;;;;4396280;32;67440;-63
2023/08/31 15:49:43;;;;;;;6.55;3.28;;;;;;;;;;4376803;32;60067;-64
2023/08/31 15:52:31;;;;;;;7.32;3.45;;;;;;;;;;4386136;32;70505;-63
2023/08/31 15:55:17;;;;;;;8.48;3.78;;;;;;;;;;4385728;32;69757;-63
2023/08/31 15:58:04;;;;;;;8.63;3.58;;;;;;;;;;4397831;32;67704;-63
2023/08/31 16:00:50;;;;;;;12.27;5.03;;;;;;;;;;4396602;32;71677;-64
2023/08/31 16:03:37;;;;;;;;;;;;;;;;;;4397040;32;65952;-63
2023/08/31 16:06:23;;;;;;;8.45;4.40;;;;;;;;;;4396693;32;67286;-64
2023/08/31 16:09:10;;;;;;;11.25;5.05;;;;;;;;;;4397992;32;59251;-63
2023/08/31 16:11:56;;;;;;;9.70;4.72;;;;;;;;;;4396518;32;71479;-64
2023/08/31 16:14:48;;;;;;;8.85;4.50;;;;;;;;;;4396800;32;65598;-63
2023/08/31 16:17:35;;;;;;;8.50;4.40;;;;;;;;;;4386034;32;68015;-64
2023/08/31 16:20:23;;;;;;;10.65;5.50;;;;;;;;;;4398155;32;60413;-64
2023/08/31 16:23:10;;;;;;;8.20;4.18;;;;;;;;;;4387031;32;69630;-64
2023/08/31 16:25:57;;;;;;;7.70;4.10;;;;;;;;;;4397760;32;69619;-64
2023/08/31 16:28:43;;;;;;;10.25;4.47;;;;;;;;;;4396441;32;66805;-64
2023/08/31 16:31:29;;;;;;;10.27;4.22;;;;;;;;;;4397486;32;71648;-64
2023/08/31 16:34:16;;;;;;;8.57;4.30;;;;;;;;;;4396683;32;66192;-64
2023/08/31 16:37:04;;;;;;;9.32;3.90;;;;;;;;;;4397600;32;69300;-63
2023/08/31 16:39:53;;;;;;;9.73;4.37;;;;;;;;;;4396225;32;66695;-65
2023/08/31 16:42:40;;;;;;;7.57;3.97;;;;;;;;;;4396298;32;70835;-63
2023/08/31 16:45:27;;;;;;;11.77;5.35;;;;;;;;;;4396640;32;65835;-63
2023/08/31 16:48:14;;;;;;;;;;;;;;;;;;4388271;32;68385;-63
2023/08/31 16:51:00;;;;;;;7.53;4.37;;;;;;;;;;4385450;32;60083;-63
2023/08/31 16:53:47;;;;;;;;;;;;;;;;;;4397755;32;69751;-64
2023/08/31 16:56:34;;;;;;;7.72;4.53;;;;;;;;;;4385551;32;68516;-63
2023/08/31 16:59:20;;;;;;;8.25;4.57;;;;;;;;;;4398968;32;66632;-64